Time;durP1;ratioP1;P1;durP2;ratioP2;P2;SDS_P1;SDS_P2;PMS_P1;PMS_P2;Temp;Humidity;BMP_temperature;BMP_pressure;BME280_temperature;BME280_humidity;BME280_pressure;Samples;Min_cycle;Max_cycle;Signal;HPM_P1;HPM_P2
2021/04/06 00:00:01;;;;;;;8.88;4.47;;;;;;;5.46;50.61;99214.11;1792175;79;21133;-59
2021/04/06 00:02:28;;;;;;;8.13;3.80;;;;;;;5.45;50.66;99215.56;1790031;79;21181;-58
2021/04/06 00:04:58;;;;;;;8.28;4.10;;;;;;;5.44;50.77;99217.31;1759127;79;21149;-58
2021/04/06 00:07:26;;;;;;;9.33;4.42;;;;;;;5.43;50.84;99217.44;1774945;79;21165;-59
2021/04/06 00:09:57;;;;;;;7.87;3.70;;;;;;;5.39;50.89;99213.75;1776300;79;21185;-59
2021/04/06 00:12:25;;;;;;;8.30;4.33;;;;;;;5.38;51.05;99213.41;1754967;79;22100;-60
2021/04/06 00:14:53;;;;;;;8.50;4.47;;;;;;;5.37;51.08;99222.17;1766036;79;21164;-59
2021/04/06 00:17:21;;;;;;;11.20;4.80;;;;;;;5.36;51.18;99219.23;1753655;79;21177;-58
2021/04/06 00:19:48;;;;;;;7.50;4.05;;;;;;;5.33;51.28;99227.29;1770947;79;21782;-59
2021/04/06 00:22:17;;;;;;;7.05;3.55;;;;;;;5.32;51.33;99221.70;1788923;79;21126;-59
2021/04/06 00:24:49;;;;;;;7.78;4.45;;;;;;;5.32;51.34;99215.66;1795217;79;21262;-58
2021/04/06 00:27:25;;;;;;;10.50;3.95;;;;;;;5.30;51.45;99217.09;1793892;79;21125;-59
2021/04/06 00:30:09;;;;;;;13.03;5.65;;;;;;;5.29;51.47;99216.72;1774943;79;21205;-59
2021/04/06 00:43:17;;;;;;;9.18;4.20;;;;;;;4.98;52.45;99203.90;1904681;74;22884;-60
2021/04/06 00:45:47;;;;;;;7.42;4.10;;;;;;;4.89;52.52;99204.09;1878964;76;21559;-59
2021/04/06 00:48:19;;;;;;;8.88;4.42;;;;;;;4.90;52.57;99203.16;1880922;75;22539;-60
2021/04/06 00:51:14;;;;;;;7.78;3.87;;;;;;;4.90;52.60;99205.77;1877062;76;21159;-60
2021/04/06 00:54:02;;;;;;;10.85;3.95;;;;;;;4.92;52.71;99200.44;1877465;75;21139;-58
2021/04/06 00:56:38;;;;;;;7.17;3.92;;;;;;;4.89;52.72;99206.70;1877411;75;21151;-59
2021/04/06 00:59:13;;;;;;;7.78;4.00;;;;;;;4.90;52.79;99204.47;1877641;75;21157;-59
2021/04/06 01:01:51;;;;;;;8.70;4.10;;;;;;;4.90;52.85;99193.22;1796513;78;23415;-59
2021/04/06 01:04:22;;;;;;;8.25;4.15;;;;;;;4.88;52.92;99201.63;1777256;78;21149;-59
2021/04/06 01:07:13;;;;;;;8.13;3.77;;;;;;;4.87;52.90;99191.66;1767321;79;21196;-59
2021/04/06 01:09:55;;;;;;;8.23;4.42;;;;;;;4.87;52.97;99195.57;1776761;79;21134;-57
2021/04/06 01:12:27;;;;;;;6.95;4.20;;;;;;;4.84;53.04;99191.44;1767344;78;21627;-59
2021/04/06 01:14:56;;;;;;;8.00;4.42;;;;;;;4.81;53.11;99192.14;1772391;79;21187;-58
2021/04/06 01:17:26;;;;;;;6.65;3.77;;;;;;;4.80;53.23;99191.77;1719733;81;21188;-59
2021/04/06 01:20:15;;;;;;;8.28;4.22;;;;;;;4.78;53.29;99188.45;1697336;83;22012;-58
2021/04/06 01:22:47;;;;;;;8.78;4.40;;;;;;;4.76;53.04;99191.17;1701775;82;21189;-59
2021/04/06 01:25:21;;;;;;;9.55;4.28;;;;;;;4.76;53.41;99191.66;1694739;82;21235;-58
2021/04/06 01:27:49;;;;;;;11.70;4.58;;;;;;;4.73;53.51;99192.70;1687584;83;21171;-58
2021/04/06 01:30:22;;;;;;;7.58;4.10;;;;;;;4.72;53.52;99190.20;1714566;81;21187;-59
2021/04/06 01:32:50;;;;;;;10.00;4.97;;;;;;;4.73;53.58;99193.19;1709403;81;21980;-59
2021/04/06 01:35:19;;;;;;;9.73;4.17;;;;;;;4.71;53.55;99188.53;1689453;82;21186;-58
2021/04/06 01:37:46;;;;;;;7.90;4.10;;;;;;;4.70;53.64;99192.92;1726409;81;21661;-58
2021/04/06 01:40:16;;;;;;;9.75;5.42;;;;;;;4.70;53.72;99193.41;1719429;81;21191;-58
2021/04/06 01:42:46;;;;;;;10.95;5.65;;;;;;;4.69;53.74;99195.20;1716042;82;21618;-59
2021/04/06 01:45:16;;;;;;;10.43;4.83;;;;;;;4.69;53.72;99203.46;1716825;82;21220;-59
2021/04/06 01:47:44;;;;;;;9.53;4.33;;;;;;;4.69;53.71;99196.95;1724266;82;21192;-59
2021/04/06 01:50:12;;;;;;;6.97;3.37;;;;;;;4.70;53.73;99203.83;1694715;81;21187;-59
2021/04/06 01:52:42;;;;;;;9.18;4.80;;;;;;;4.72;53.71;99203.23;1715420;81;21595;-60
2021/04/06 01:55:16;;;;;;;10.00;4.60;;;;;;;4.73;53.72;99197.09;1688198;81;21170;-60
2021/04/06 01:57:44;;;;;;;9.05;4.95;;;;;;;4.75;53.82;99198.63;1725628;81;21290;-60
2021/04/06 02:03:11;;;;;;;9.03;4.72;;;;;;;4.82;53.67;99200.30;1868532;74;22728;-59
2021/04/06 02:05:35;;;;;;;8.45;4.40;;;;;;;4.82;53.56;99201.60;1783399;80;21178;-60
2021/04/06 02:08:11;;;;;;;11.95;4.12;;;;;;;4.84;53.49;99201.01;1802710;77;21217;-60
2021/04/06 02:10:36;;;;;;;8.63;4.53;;;;;;;4.86;53.49;99199.14;1786726;78;21563;-60
2021/04/06 02:13:14;;;;;;;8.58;4.67;;;;;;;4.87;53.52;99195.57;1784817;78;21198;-60
2021/04/06 02:15:55;;;;;;;8.35;4.92;;;;;;;4.88;53.59;99197.24;1776773;78;21188;-60
2021/04/06 02:18:24;;;;;;;10.08;4.80;;;;;;;4.88;53.63;99199.03;1807624;77;21143;-59
2021/04/06 02:20:57;;;;;;;9.68;4.30;;;;;;;4.87;53.62;99198.17;1782463;78;21216;-59
2021/04/06 02:23:26;;;;;;;9.43;4.87;;;;;;;4.84;53.55;99194.48;1739806;80;21661;-59
2021/04/06 02:25:56;;;;;;;8.13;5.10;;;;;;;4.83;53.64;99195.45;1812620;78;21109;-59
2021/04/06 02:28:24;;;;;;;8.90;4.53;;;;;;;4.84;53.72;99197.95;1789003;79;21157;-59
2021/04/06 02:30:57;;;;;;;9.73;4.83;;;;;;;4.82;53.64;99201.15;1814427;78;21199;-59
2021/04/06 02:33:27;;;;;;;9.83;5.22;;;;;;;4.82;53.66;99202.91;1773632;79;21256;-59
2021/04/06 02:35:58;;;;;;;7.90;4.53;;;;;;;4.83;53.62;99206.70;1754319;78;21595;-59
2021/04/06 02:38:27;;;;;;;8.80;5.12;;;;;;;4.82;53.65;99199.00;1774389;78;21215;-59
2021/04/06 02:41:16;;;;;;;12.70;6.47;;;;;;;4.83;53.76;99193.67;1777116;78;21204;-59
2021/04/06 02:43:50;;;;;;;10.40;5.20;;;;;;;4.84;53.83;99189.28;1750066;78;21227;-60
2021/04/06 02:46:26;;;;;;;8.40;5.17;;;;;;;4.88;53.84;99184.69;1795728;78;21961;-59
2021/04/06 02:48:55;;;;;;;10.35;5.25;;;;;;;4.82;53.79;99180.30;1770320;79;21172;-60
2021/04/06 02:51:23;;;;;;;8.98;5.15;;;;;;;4.81;53.85;99186.45;1775918;78;21373;-60
2021/04/06 02:53:52;;;;;;;9.08;5.25;;;;;;;4.82;53.85;99190.72;1733215;81;21141;-60
2021/04/06 02:56:35;;;;;;;13.68;5.47;;;;;;;4.81;53.91;99185.14;1692654;81;21144;-60
2021/04/06 02:59:20;;;;;;;9.30;5.17;;;;;;;4.81;53.93;99189.05;1730095;81;21663;-60
2021/04/06 03:01:50;;;;;;;10.88;5.58;;;;;;;4.82;53.96;99185.52;1733914;82;21255;-60
2021/04/06 03:04:24;;;;;;;9.88;5.67;;;;;;;4.81;53.94;99192.96;1688468;82;22307;-60
2021/04/06 03:06:54;;;;;;;10.65;5.33;;;;;;;4.80;53.95;99193.89;1717553;82;21215;-60
2021/04/06 03:09:25;;;;;;;9.28;5.22;;;;;;;4.81;54.06;99192.14;1728402;81;21200;-60
2021/04/06 03:11:54;;;;;;;8.68;5.05;;;;;;;4.79;54.09;99190.09;1724161;81;21152;-59
2021/04/06 03:14:24;;;;;;;7.55;4.55;;;;;;;4.76;54.09;99201.60;1689704;82;21228;-58
2021/04/06 03:16:52;;;;;;;10.23;5.25;;;;;;;4.72;54.33;99191.03;1717174;81;21215;-58
2021/04/06 03:19:31;;;;;;;10.48;5.95;;;;;;;4.72;54.24;99191.52;1693267;81;21167;-63
2021/04/06 03:21:58;;;;;;;10.05;5.20;;;;;;;4.71;54.31;99191.14;1732481;81;21208;-61
2021/04/06 03:24:28;;;;;;;8.63;4.47;;;;;;;4.69;54.34;99190.44;1699214;81;21600;-62
2021/04/06 03:27:02;;;;;;;11.78;6.12;;;;;;;4.69;54.36;99193.03;1724739;82;21191;-58
2021/04/06 03:29:30;;;;;;;9.30;4.60;;;;;;;4.68;54.41;99196.13;1749172;80;21243;-57
2021/04/06 03:31:59;;;;;;;7.80;4.45;;;;;;;4.70;54.36;99203.83;1713311;81;21033;-57
2021/04/06 03:34:37;;;;;;;9.03;4.60;;;;;;;4.69;54.30;99218.64;1709056;82;21168;-58
2021/04/06 03:37:06;;;;;;;8.43;5.17;;;;;;;4.69;54.30;99218.64;1708525;82;21199;-57
2021/04/06 03:39:36;;;;;;;8.80;4.35;;;;;;;4.69;54.30;99221.70;1680826;81;21204;-57
2021/04/06 03:42:05;;;;;;;8.35;4.87;;;;;;;4.68;54.31;99219.58;1693269;81;21191;-58
2021/04/06 03:44:32;;;;;;;11.45;4.85;;;;;;;4.67;54.43;99219.20;1718109;82;21195;-58
2021/04/06 03:47:04;;;;;;;11.08;5.92;;;;;;;4.70;54.50;99212.95;1689295;82;21663;-58
2021/04/06 03:49:32;;;;;;;12.37;5.37;;;;;;;4.70;54.54;99218.98;1661699;84;21239;-58
2021/04/06 03:52:05;;;;;;;9.88;4.60;;;;;;;4.72;54.43;99223.61;1673854;83;21210;-58
2021/04/06 03:54:46;;;;;;;10.72;6.25;;;;;;;4.76;54.40;99217.72;1689408;82;21207;-58
2021/04/06 04:00:18;;;;;;;10.00;5.15;;;;;;;4.84;54.29;99214.89;1831961;76;23283;-58
2021/04/06 04:02:48;;;;;;;10.35;5.30;;;;;;;4.83;54.28;99220.22;1794030;78;21175;-58
2021/04/06 04:05:15;;;;;;;10.05;5.95;;;;;;;4.86;54.33;99218.69;1714390;81;21206;-58
2021/04/06 04:07:42;;;;;;;11.63;5.75;;;;;;;4.90;54.29;99214.89;1743297;81;21056;-57
2021/04/06 04:10:11;;;;;;;10.82;5.58;;;;;;;4.97;54.34;99226.52;1708973;81;21641;-58
2021/04/06 04:12:40;;;;;;;10.15;5.37;;;;;;;5.00;54.57;99222.38;1742006;81;21182;-58
2021/04/06 04:15:09;;;;;;;11.22;4.83;;;;;;;5.06;54.22;99217.19;1771563;79;21146;-57
2021/04/06 04:17:37;;;;;;;11.30;5.70;;;;;;;5.11;53.74;99216.81;1765985;80;21192;-58
2021/04/06 04:20:11;;;;;;;10.60;5.70;;;;;;;5.11;53.57;99219.42;1735216;81;21030;-58
2021/04/06 04:22:38;;;;;;;9.43;5.20;;;;;;;5.14;53.65;99216.11;1740340;80;21190;-57
2021/04/06 04:25:08;;;;;;;14.93;5.97;;;;;;;5.17;53.62;99220.27;1764298;79;21598;-58
2021/04/06 04:27:37;;;;;;;10.03;4.97;;;;;;;5.19;53.67;99217.06;1749538;81;21599;-57
2021/04/06 04:30:06;;;;;;;8.38;5.12;;;;;;;5.22;53.46;99212.92;1785539;79;21164;-57
2021/04/06 04:32:35;;;;;;;11.30;5.75;;;;;;;5.21;53.36;99216.47;1809911;78;21675;-58
2021/04/06 04:35:05;;;;;;;11.22;5.97;;;;;;;5.23;53.47;99214.59;1795410;79;21073;-57
2021/04/06 04:37:32;;;;;;;9.73;5.40;;;;;;;5.25;53.40;99212.70;1778584;79;21199;-58
2021/04/06 04:40:04;;;;;;;11.57;5.53;;;;;;;5.28;53.40;99213.77;1796673;79;21215;-58
2021/04/06 04:42:35;;;;;;;11.28;5.15;;;;;;;5.30;53.35;99211.05;1799166;77;21193;-60
2021/04/06 04:45:06;;;;;;;11.57;6.62;;;;;;;5.32;53.28;99211.27;1796985;77;22367;-57
2021/04/06 04:47:33;;;;;;;13.13;5.25;;;;;;;5.35;53.35;99208.43;1768567;79;21269;-57
2021/04/06 04:50:01;;;;;;;12.47;6.15;;;;;;;5.41;53.34;99207.11;1794589;77;21176;-57
2021/04/06 04:52:28;;;;;;;9.73;5.60;;;;;;;5.47;53.27;99213.17;1793326;79;21195;-58
2021/04/06 04:54:56;;;;;;;11.55;6.15;;;;;;;5.53;53.08;99209.24;1798179;79;21262;-58
2021/04/06 04:57:24;;;;;;;13.00;6.15;;;;;;;5.58;53.09;99211.02;1796635;79;21156;-58
2021/04/06 04:59:51;;;;;;;10.53;5.55;;;;;;;5.62;52.86;99213.77;1797736;79;21187;-59
2021/04/06 05:02:18;;;;;;;9.40;5.65;;;;;;;5.66;52.96;99216.95;1774277;79;21614;-58
2021/04/06 05:04:46;;;;;;;14.13;6.40;;;;;;;5.70;52.72;99223.59;1781953;77;21156;-59
2021/04/06 05:07:14;;;;;;;8.73;4.90;;;;;;;5.71;52.20;99228.69;1800491;79;21198;-59
2021/04/06 05:09:42;;;;;;;8.85;4.47;;;;;;;5.70;52.27;99233.57;1803370;78;21144;-57
2021/04/06 05:12:10;;;;;;;8.73;4.83;;;;;;;5.69;52.34;99234.50;1799954;78;21132;-61
2021/04/06 05:14:38;;;;;;;10.58;5.25;;;;;;;5.71;52.38;99227.87;1797631;79;21646;-59
2021/04/06 05:17:05;;;;;;;11.73;5.35;;;;;;;5.71;52.36;99219.55;1792421;79;21140;-58
2021/04/06 05:19:33;;;;;;;8.38;4.85;;;;;;;5.76;52.40;99223.93;1802098;77;21347;-59
2021/04/06 05:22:01;;;;;;;10.38;5.03;;;;;;;5.82;52.23;99227.86;1770121;79;21194;-58
2021/04/06 05:24:28;;;;;;;7.90;4.70;;;;;;;5.88;52.24;99226.05;1802618;77;21156;-59
2021/04/06 05:26:56;;;;;;;10.82;5.58;;;;;;;5.92;52.10;99234.50;1772357;77;21541;-59
2021/04/06 05:29:23;;;;;;;10.43;5.45;;;;;;;5.94;52.12;99228.67;1799370;78;21276;-58
2021/04/06 05:31:51;;;;;;;10.85;6.35;;;;;;;5.98;52.16;99230.11;1797077;79;21194;-59
2021/04/06 05:34:18;;;;;;;11.50;5.97;;;;;;;6.01;52.16;99216.81;1797369;79;21203;-59
2021/04/06 05:36:47;;;;;;;11.88;5.42;;;;;;;6.08;52.02;99223.20;1737476;82;21179;-59
2021/04/06 05:39:16;;;;;;;10.18;5.70;;;;;;;6.13;51.80;99218.44;1748959;80;21212;-59
2021/04/06 05:41:47;;;;;;;12.93;5.85;;;;;;;6.23;52.03;99224.23;1803468;77;21186;-59
2021/04/06 05:44:16;;;;;;;9.35;5.20;;;;;;;6.29;52.07;99229.80;1773027;79;21219;-59
2021/04/06 05:46:47;;;;;;;10.23;5.62;;;;;;;6.39;51.82;99224.66;1797272;77;21303;-67
2021/04/06 05:49:23;;;;;;;11.60;6.12;;;;;;;6.48;51.75;99234.36;1796419;79;21168;-65
2021/04/06 05:51:53;;;;;;;11.08;6.15;;;;;;;6.60;51.68;99235.14;1796905;77;21170;-65
2021/04/06 05:54:24;;;;;;;11.48;6.65;;;;;;;6.70;51.27;99227.38;1793386;79;21210;-67
2021/04/06 05:56:52;;;;;;;11.57;6.40;;;;;;;6.77;51.16;99223.29;1794633;77;21206;-69
2021/04/06 05:59:19;;;;;;;10.85;5.75;;;;;;;6.90;51.00;99235.37;1791438;77;21211;-68
2021/04/06 06:01:47;;;;;;;16.93;6.30;;;;;;;7.01;50.69;99234.83;1772552;79;21143;-62
2021/04/06 06:04:17;;;;;;;12.88;6.75;;;;;;;7.12;49.92;99228.68;1793271;78;21130;-66
2021/04/06 06:06:45;;;;;;;9.93;5.60;;;;;;;7.16;49.77;99231.86;1800297;78;21596;-66
2021/04/06 06:09:14;;;;;;;11.12;6.45;;;;;;;7.17;49.98;99229.61;1765442;77;21234;-67
2021/04/06 06:12:10;;;;;;;9.43;5.10;;;;;;;7.23;50.41;99229.92;1771052;78;21801;-65
2021/04/06 06:14:45;;;;;;;11.70;6.12;;;;;;;7.34;50.48;99226.38;1773754;79;21190;-63
2021/04/06 06:17:26;;;;;;;13.43;6.12;;;;;;;7.46;49.66;99230.23;1799946;79;21180;-66
2021/04/06 06:19:57;;;;;;;12.18;5.45;;;;;;;7.51;49.20;99227.55;1790571;78;21199;-65
2021/04/06 06:22:27;;;;;;;11.83;5.75;;;;;;;7.57;49.43;99231.45;1765826;79;21227;-59
2021/04/06 06:25:11;;;;;;;19.07;6.53;;;;;;;7.66;48.80;99228.03;1798328;78;21144;-59
2021/04/06 06:27:44;;;;;;;9.33;5.15;;;;;;;7.72;48.54;99230.13;1776999;78;21571;-63
2021/04/06 06:30:34;;;;;;;12.93;6.25;;;;;;;7.79;48.30;99233.86;1798601;79;21191;-59
2021/04/06 06:33:27;;;;;;;7.80;5.25;;;;;;;7.87;48.33;99239.75;1794239;79;21204;-58
2021/04/06 06:36:08;;;;;;;9.65;5.40;;;;;;;7.98;48.30;99238.34;1797401;78;21191;-57
2021/04/06 06:38:40;;;;;;;10.38;5.42;;;;;;;8.11;47.85;99235.95;1793090;79;21615;-59
2021/04/06 06:41:19;;;;;;;11.63;5.83;;;;;;;8.25;47.43;99230.30;1794262;78;21127;-58
2021/04/06 06:43:54;;;;;;;12.98;6.28;;;;;;;8.40;47.59;99231.22;1799604;79;21180;-59
2021/04/06 06:46:24;;;;;;;;;;;;;;;8.57;47.33;99233.18;1803277;77;21163;-68
2021/04/06 06:48:53;;;;;;;9.35;5.35;;;;;;;8.74;47.03;99223.32;1767948;79;20981;-66
2021/04/06 06:51:32;;;;;;;12.53;6.20;;;;;;;8.85;46.61;99228.06;1799056;79;21164;-58
2021/04/06 06:54:02;;;;;;;9.93;5.70;;;;;;;9.00;46.66;99232.41;1779114;79;21564;-58
2021/04/06 06:56:39;;;;;;;13.98;6.30;;;;;;;9.17;46.30;99232.97;1797031;77;21171;-57
2021/04/06 06:59:09;;;;;;;11.63;7.05;;;;;;;9.34;45.98;99235.34;1794949;78;21757;-58
2021/04/06 07:01:38;;;;;;;12.05;6.53;;;;;;;9.52;45.18;99229.36;1773117;79;21972;-58
2021/04/06 07:04:12;;;;;;;10.90;6.55;;;;;;;9.64;44.47;99226.38;1769974;79;21195;-58
2021/04/06 07:06:43;;;;;;;11.93;5.67;;;;;;;9.73;44.67;99226.48;1796132;78;21639;-58
2021/04/06 07:09:25;;;;;;;11.10;6.50;;;;;;;9.83;44.22;99223.31;1795589;79;21177;-59
2021/04/06 07:11:58;;;;;;;11.22;5.37;;;;;;;9.92;43.57;99226.39;1728538;80;21217;-60
2021/04/06 07:14:27;;;;;;;10.05;5.90;;;;;;;10.00;43.48;99226.48;1791366;79;21244;-58
2021/04/06 07:16:58;;;;;;;8.98;6.15;;;;;;;10.08;43.26;99222.28;1728985;81;21223;-58
2021/04/06 07:19:26;;;;;;;9.63;5.00;;;;;;;10.16;42.67;99221.88;1748147;80;21597;-58
2021/04/06 07:21:56;;;;;;;9.53;5.72;;;;;;;10.23;42.39;99218.98;1770458;79;21144;-66
2021/04/06 07:24:30;;;;;;;12.43;5.95;;;;;;;10.31;42.36;99219.56;1770785;78;21207;-60
2021/04/06 07:26:58;;;;;;;9.53;5.70;;;;;;;10.41;42.12;99226.92;1788842;79;22760;-60
2021/04/06 07:29:25;;;;;;;9.25;5.70;;;;;;;10.52;41.65;99228.98;1752371;80;21249;-58
2021/04/06 07:31:53;;;;;;;11.30;6.00;;;;;;;10.61;41.98;99229.41;1749733;80;21221;-56
2021/04/06 07:34:22;;;;;;;9.68;5.42;;;;;;;10.75;42.32;99234.61;1752122;80;21250;-57
2021/04/06 07:36:49;;;;;;;14.05;5.97;;;;;;;10.92;41.82;99232.44;1742255;81;21206;-57
2021/04/06 07:39:18;;;;;;;11.70;6.55;;;;;;;11.08;40.83;99226.98;1790513;79;21530;-58
2021/04/06 07:41:47;;;;;;;10.35;6.37;;;;;;;11.18;40.60;99230.33;1752930;81;21717;-58
2021/04/06 07:44:15;;;;;;;9.88;6.00;;;;;;;11.28;40.83;99218.34;1795070;78;21176;-58
2021/04/06 07:46:47;;;;;;;10.45;6.20;;;;;;;11.37;40.20;99224.52;1752699;80;21197;-58
2021/04/06 07:49:27;;;;;;;11.83;5.33;;;;;;;11.46;39.92;99232.78;1754142;80;21108;-57
2021/04/06 07:51:59;;;;;;;10.03;5.58;;;;;;;11.53;40.11;99221.47;1789469;79;21267;-59
2021/04/06 07:54:40;;;;;;;13.22;6.20;;;;;;;11.65;39.20;99224.65;1738974;80;22529;-58
2021/04/06 07:57:07;;;;;;;12.47;6.10;;;;;;;11.72;39.28;99226.16;1765591;79;21212;-58
2021/04/06 07:59:43;;;;;;;8.35;5.40;;;;;;;11.80;39.21;99226.66;1735457;80;21221;-59
2021/04/06 08:02:16;;;;;;;10.15;5.58;;;;;;;11.86;38.67;99217.63;1750277;81;27219;-57
2021/04/06 08:04:52;;;;;;;9.68;5.00;;;;;;;11.95;39.15;99226.41;1803484;78;21201;-58
2021/04/06 08:07:24;;;;;;;9.57;4.97;;;;;;;12.04;38.81;99225.47;1766186;78;21183;-61
2021/04/06 08:09:59;;;;;;;9.00;5.12;;;;;;;12.17;38.11;99222.85;1797222;77;21884;-60
2021/04/06 08:12:33;;;;;;;8.55;5.45;;;;;;;12.24;36.77;99223.87;1798760;78;21219;-58
2021/04/06 08:15:10;;;;;;;11.15;6.00;;;;;;;12.25;37.01;99224.19;1800020;77;21119;-59
2021/04/06 08:17:54;;;;;;;11.70;5.55;;;;;;;12.28;38.10;99221.73;1798743;78;21704;-58
2021/04/06 08:20:32;;;;;;;9.50;5.33;;;;;;;12.34;36.91;99225.88;1799254;78;21136;-58
2021/04/06 08:23:07;;;;;;;11.03;6.25;;;;;;;12.39;36.05;99219.61;1798100;77;21128;-60
2021/04/06 08:25:41;;;;;;;9.88;5.47;;;;;;;12.41;36.96;99219.45;1769806;78;21135;-58
2021/04/06 08:28:31;;;;;;;10.08;5.47;;;;;;;12.43;37.49;99222.23;1751065;80;21095;-59
2021/04/06 08:31:27;;;;;;;10.60;5.97;;;;;;;12.49;36.89;99218.14;1774142;78;22460;-59
2021/04/06 08:34:05;;;;;;;9.18;5.90;;;;;;;12.53;37.59;99227.37;1798066;77;21120;-58
2021/04/06 08:36:33;;;;;;;10.60;6.00;;;;;;;12.60;36.30;99223.07;1766240;78;21601;-58
2021/04/06 08:39:01;;;;;;;11.75;7.25;;;;;;;12.62;36.45;99216.31;1800301;77;22551;-59
2021/04/06 08:41:33;;;;;;;11.25;6.92;;;;;;;12.68;36.33;99213.03;1797218;78;21155;-59
2021/04/06 08:44:06;;;;;;;17.42;8.48;;;;;;;12.72;35.87;99207.73;1765142;78;21160;-58
2021/04/06 08:46:40;;;;;;;11.10;7.08;;;;;;;12.77;35.86;99204.09;1784655;78;21199;-58
2021/04/06 08:49:19;;;;;;;13.18;7.67;;;;;;;12.85;35.25;99211.20;1767415;80;21172;-57
2021/04/06 08:52:01;;;;;;;9.53;6.90;;;;;;;12.92;35.98;99202.94;1871550;74;22347;-59
2021/04/06 08:54:31;;;;;;;;;;;;;;;13.01;34.81;99211.67;1848531;76;21649;-58
2021/04/06 08:57:03;;;;;;;11.20;5.03;;;;;;;13.06;34.40;99211.98;1830179;77;22021;-59
2021/04/06 08:59:39;;;;;;;9.80;6.28;;;;;;;13.04;33.86;99202.09;1840991;75;22664;-57
2021/04/06 09:02:17;;;;;;;10.90;5.58;;;;;;;13.11;34.25;99216.30;1822113;77;21199;-61
2021/04/06 09:04:50;;;;;;;8.45;5.22;;;;;;;13.17;34.44;99216.93;1741792;80;21476;-61
2021/04/06 09:07:32;;;;;;;9.08;5.22;;;;;;;13.24;34.83;99213.63;1752343;79;21151;-61
2021/04/06 09:10:09;;;;;;;8.43;5.30;;;;;;;13.37;34.07;99209.98;1782426;78;21463;-62
2021/04/06 09:12:42;;;;;;;8.30;4.77;;;;;;;13.48;34.00;99212.75;1786154;78;21171;-61
2021/04/06 09:15:12;;;;;;;10.68;5.80;;;;;;;13.55;33.50;99204.49;1771212;79;21238;-64
2021/04/06 09:17:41;;;;;;;8.98;5.20;;;;;;;13.62;33.02;99198.84;1781177;78;21689;-62
2021/04/06 09:20:16;;;;;;;9.10;5.20;;;;;;;13.69;33.11;99202.94;1784976;78;21361;-61
2021/04/06 09:22:47;;;;;;;7.50;4.10;;;;;;;13.73;33.02;99192.34;1754133;79;21184;-62
2021/04/06 09:25:23;;;;;;;9.88;4.67;;;;;;;13.81;32.69;99192.81;1782737;78;21559;-59
2021/04/06 09:28:01;;;;;;;9.68;3.90;;;;;;;13.90;31.97;99196.56;1787064;79;21238;-65
2021/04/06 09:30:40;;;;;;;9.85;4.33;;;;;;;13.98;30.94;99194.36;1765216;79;21601;-63
2021/04/06 09:33:10;;;;;;;8.25;4.55;;;;;;;14.04;30.79;99190.21;1752886;79;21335;-62
2021/04/06 09:35:38;;;;;;;8.65;4.87;;;;;;;14.07;31.21;99193.80;1784600;78;22096;-62
2021/04/06 09:38:07;;;;;;;7.62;4.33;;;;;;;14.12;30.29;99201.56;1783671;78;21101;-60
2021/04/06 09:40:39;;;;;;;9.28;3.92;;;;;;;14.12;30.55;99200.72;1787020;78;21124;-61
2021/04/06 09:43:06;;;;;;;6.95;4.10;;;;;;;14.16;30.75;99200.70;1785653;78;21466;-63
2021/04/06 09:45:34;;;;;;;9.05;4.33;;;;;;;14.29;31.76;99195.66;1764940;79;21179;-61
2021/04/06 09:48:03;;;;;;;7.80;3.98;;;;;;;14.48;30.95;99192.22;1785908;78;23407;-60
2021/04/06 09:50:30;;;;;;;9.28;4.58;;;;;;;14.61;31.45;99187.70;1774014;79;21219;-62
2021/04/06 09:52:58;;;;;;;7.08;3.50;;;;;;;14.75;29.82;99184.76;1768910;79;21212;-66
2021/04/06 09:55:28;;;;;;;7.33;3.22;;;;;;;14.77;29.07;99180.91;1771003;79;21228;-61
2021/04/06 09:58:02;;;;;;;6.78;3.95;;;;;;;14.76;29.63;99175.79;1777255;78;21203;-62
2021/04/06 10:00:32;;;;;;;6.80;3.42;;;;;;;14.81;29.71;99173.42;1771949;79;21320;-62
2021/04/06 10:03:14;;;;;;;6.35;2.90;;;;;;;14.90;30.67;99168.39;1779501;78;21219;-61
2021/04/06 10:05:44;;;;;;;9.68;3.60;;;;;;;15.07;29.36;99161.09;1772306;79;21199;-63
2021/04/06 10:08:13;;;;;;;6.53;3.47;;;;;;;15.16;28.76;99165.80;1768402;79;21239;-60
2021/04/06 10:10:48;;;;;;;7.12;3.50;;;;;;;15.16;28.09;99171.94;1767139;79;21206;-60
2021/04/06 10:16:09;;;;;;;6.45;3.25;;;;;;;15.17;28.13;99176.73;1866134;74;22680;-63
2021/04/06 10:18:41;;;;;;;6.80;3.67;;;;;;;15.04;28.59;99178.67;1755711;79;21108;-67
2021/04/06 10:21:21;;;;;;;8.13;4.20;;;;;;;15.05;28.64;99174.52;1797365;78;21542;-61
2021/04/06 10:23:49;;;;;;;8.10;4.30;;;;;;;15.09;28.77;99174.16;1798808;78;20994;-60
2021/04/06 10:26:21;;;;;;;9.63;4.12;;;;;;;15.13;28.46;99170.13;1784793;78;21204;-64
2021/04/06 10:29:07;;;;;;;7.97;4.72;;;;;;;15.20;28.46;99159.14;1770677;79;21289;-62
2021/04/06 10:31:50;;;;;;;;;;;;;;;15.21;29.18;99156.31;1780155;78;21180;-64
2021/04/06 10:34:18;;;;;;;7.03;3.77;;;;;;;15.24;30.31;99162.55;1792337;78;22633;-60
2021/04/06 10:37:07;;;;;;;9.23;4.37;;;;;;;15.25;28.59;99159.42;1778510;78;21207;-62
2021/04/06 10:39:42;;;;;;;7.45;3.80;;;;;;;15.27;28.51;99160.05;1824117;77;21218;-61
2021/04/06 10:42:13;;;;;;;12.60;5.03;;;;;;;15.27;29.07;99151.28;1790586;77;21249;-61
2021/04/06 10:44:43;;;;;;;8.23;4.80;;;;;;;15.26;29.38;99151.77;1778846;78;21181;-61
2021/04/06 10:47:25;;;;;;;12.10;5.78;;;;;;;15.28;30.17;99159.54;1798366;79;21223;-61
2021/04/06 10:49:57;;;;;;;9.73;5.45;;;;;;;15.33;29.97;99154.03;1751721;80;21513;-62
2021/04/06 10:52:33;;;;;;;8.65;4.87;;;;;;;15.42;30.24;99152.09;1782064;77;21219;-64
2021/04/06 10:55:03;;;;;;;9.08;5.08;;;;;;;15.54;31.18;99145.30;1795445;79;21770;-62
2021/04/06 10:57:36;;;;;;;9.45;5.40;;;;;;;15.72;30.81;99146.23;1789543;79;21224;-62
2021/04/06 11:00:24;;;;;;;9.03;4.85;;;;;;;15.92;30.21;99140.34;1794562;78;21213;-67
2021/04/06 11:03:15;;;;;;;;;;;;;;;16.07;30.88;99131.02;1758676;80;21552;-64
2021/04/06 11:05:42;;;;;;;8.50;4.47;;;;;;;16.25;28.48;99131.39;1782019;78;20299;-60
2021/04/06 11:08:25;;;;;;;7.95;4.40;;;;;;;16.19;29.28;99136.16;1797255;78;21114;-59
2021/04/06 11:10:56;;;;;;;7.20;4.03;;;;;;;16.19;28.78;99136.64;1787783;78;21151;-62
2021/04/06 11:13:23;;;;;;;7.47;4.45;;;;;;;16.16;27.93;99143.97;1793443;78;21215;-62
2021/04/06 11:15:54;;;;;;;12.75;4.90;;;;;;;16.06;28.98;99130.20;1791202;78;21223;-59
2021/04/06 11:18:22;;;;;;;7.30;3.92;;;;;;;16.09;28.94;99129.02;1750700;78;21243;-62
2021/04/06 11:20:50;;;;;;;6.80;4.17;;;;;;;16.14;28.19;99142.53;1808152;78;21450;-61
2021/04/06 11:23:17;;;;;;;7.30;4.20;;;;;;;16.05;28.21;99131.20;1816566;78;21124;-59
2021/04/06 11:25:45;;;;;;;8.75;4.58;;;;;;;16.01;28.75;99118.01;1791893;79;22443;-59
2021/04/06 11:28:14;;;;;;;13.68;5.05;;;;;;;16.10;29.60;99111.55;1793246;78;21195;-61
2021/04/06 11:30:42;;;;;;;7.67;4.85;;;;;;;16.23;28.25;99114.84;1791516;79;21164;-66
2021/04/06 11:33:09;;;;;;;8.08;4.12;;;;;;;16.29;28.50;99121.21;1791923;78;21559;-62
2021/04/06 11:35:37;;;;;;;6.60;3.35;;;;;;;16.35;28.70;99110.65;1770484;79;21172;-63
2021/04/06 11:38:04;;;;;;;9.50;4.08;;;;;;;16.50;28.38;99109.76;1820808;77;21293;-62
2021/04/06 11:40:31;;;;;;;7.78;3.85;;;;;;;16.61;28.30;99097.77;1817652;78;21195;-64
2021/04/06 11:43:00;;;;;;;7.47;3.85;;;;;;;16.67;27.35;99105.79;1792165;78;21179;-59
2021/04/06 11:45:28;;;;;;;8.48;4.65;;;;;;;16.62;28.34;99106.88;1791561;77;21205;-61
2021/04/06 11:47:55;;;;;;;6.72;3.70;;;;;;;16.63;27.88;99101.08;1772120;79;21207;-61
2021/04/06 11:50:23;;;;;;;7.80;4.20;;;;;;;16.63;28.67;99095.77;1823491;77;21645;-63
2021/04/06 11:52:51;;;;;;;7.33;4.28;;;;;;;16.75;28.81;99101.36;1822117;78;21183;-61
2021/04/06 11:55:19;;;;;;;7.35;4.53;;;;;;;16.87;28.37;99108.61;1821650;78;21236;-67
2021/04/06 11:57:46;;;;;;;7.85;4.47;;;;;;;16.97;27.33;99110.92;1816538;77;21175;-64
2021/04/06 12:00:16;;;;;;;9.20;4.40;;;;;;;17.00;27.57;99100.42;1803251;78;21281;-61
2021/04/06 12:02:43;;;;;;;6.97;4.10;;;;;;;16.89;27.50;99101.29;1798588;78;21637;-60
2021/04/06 12:05:12;;;;;;;7.47;4.00;;;;;;;16.69;27.44;99104.27;1797151;78;21183;-59
2021/04/06 12:07:39;;;;;;;8.18;4.12;;;;;;;16.45;27.75;99097.57;1782963;78;21238;-57
2021/04/06 12:10:10;;;;;;;11.48;4.80;;;;;;;16.32;28.52;99101.77;1815395;77;22478;-64
2021/04/06 12:12:38;;;;;;;7.90;4.42;;;;;;;16.31;28.55;99088.17;1822802;77;21172;-66
2021/04/06 12:15:08;;;;;;;7.87;4.55;;;;;;;16.31;28.70;99084.70;1816617;77;21331;-64
2021/04/06 12:17:35;;;;;;;7.10;4.37;;;;;;;16.33;28.78;99082.16;1790426;79;21199;-65